Historyczne dane pomiarowe

Dodano dane terminowe – wersja testowa.

Dane z okresu 1951-2019

Wersja bazy: 1.34 [2019-03-16, lista zmian], aktualizacja planowana na 2019-04-15

Dane meteo z obszaru Polski uzyskane na podstawie danych udostępnionych przez Instytut Meteorologii i Gospodarki Wodnej – Państwowy Instytut Badawczy.

 

Wybierz Datę:    

       

TemperaturaWilgotnośćWiatrCiśnienieOpadyŚniegCzas trwania zjawisk
 Stacja t tx tn tng RH VA  wxwx mslp ppp RRR   cm mm wxwxwxwxwxwxwx
1999-08-14 15.0 18.1 10.7 8.4 73.8- 6.3 1.3---- 5.7------------
1999-08-13 17.0 21.3 14.0 11.5 78.5- 5.7 2.7---- 0.0------------
1999-08-12 17.9 22.3 14.1 13.4 70.3- 5.3 4.3---- 0.0------------
1999-08-11 19.0 23.5 15.6 14.9 85.3- 2.7 3.0---- 0.0------------
1999-08-10 19.6 25.6 14.9 11.4 75.3- 6.3 2.7---- 39.7------------
1999-08-09 20.9 26.8 16.6 14.0 80.5- 7.3 1.7---- 0.0------------
1999-08-08 17.5 22.1 13.5 11.0 87.5- 7.7 2.3---- 9.9------------
1999-08-07 20.6 28.3 11.7 7.7 70.3- 3.3 2.7---- 0.0------------
1999-08-06 21.4 28.6 12.2 10.3 52.5- 1.7 1.3---- 0.0------------
1999-08-05 20.8 27.3 11.3 7.2 61.8- 1.3 1.3---- 0.0------------
1999-08-04 20.6 26.7 11.9 8.9 59.3- 1.7 1.3---- 0.0------------
1999-08-03 19.5 25.5 11.6 8.6 49.8- 2.0 2.3---- 0.0------------
1999-08-02 19.8 25.1 12.2 9.0 45.5- 2.7 3.0---- 0.0------------
1999-08-01 19.6 25.1 12.9 11.9 55.5- 2.7 3.3---- 0.0------------
1999-07-31 20.6 25.9 13.2 8.0 46.5- 0.7 4.3---- 0.0------------
1999-07-30 18.9 25.7 12.1 7.6 58.8- 1.3 3.0---- 0.0------------
1999-07-29 18.8 23.6 11.7 8.1 59.0- 1.7 3.3---- 0.0------------
1999-07-28 18.2 23.8 12.9 10.8 69.0- 4.0 4.0---- 0.0------------
1999-07-27 17.9 23.5 11.1 9.7 69.3- 1.7 4.3---- 0.0------------
1999-07-26 19.8 26.3 14.5 10.5 83.0- 6.0 4.3---- 11.3------------
1999-07-25 18.5 25.1 13.0 11.0 83.0- 6.3 3.7---- 0.0------------
1999-07-24 19.4 24.3 13.7 8.8 66.8- 3.0 3.7---- 0.0------------
1999-07-23 17.4 21.0 11.2 7.3 79.5- 4.7 2.3---- 0.0------------
1999-07-22 18.8 22.3 15.2 13.3 78.3- 3.3 2.0---- 0.0------------
1999-07-21 20.8 27.7 15.8 10.4 77.8- 7.0 3.0---- 9.8------------
1999-07-20 22.1 27.5 15.1 12.4 65.0- 0.0 1.7---- 0.0------------
1999-07-19 20.7 25.7 14.9 11.3 84.3- 1.7 1.7---- 0.0------------
1999-07-18 17.8 23.3 10.5 6.6 78.8- 4.3 1.7---- 0.0------------
1999-07-17 17.3 22.4 9.6 6.4 73.5- 3.7 3.0---- 0.0------------
1999-07-16 15.6 20.8 12.0 8.0 78.0- 5.0 2.3---- 0.7------------
1999-07-15 17.2 23.3 14.4 14.0 93.8- 7.7 2.7---- 5.0------------
1999-07-14 21.8 25.8 17.8 15.9 71.3- 5.7 4.0---- 10.9------------
1999-07-13 23.1 28.7 16.1 12.1 64.8- 5.7 5.0---- 0.0------------
1999-07-12 23.0 29.4 13.6 9.9 65.0- 1.7 2.0---- 0.0------------
1999-07-11 22.0 27.6 14.4 11.0 68.0- 0.0 1.7---- 0.0------------
1999-07-10 20.2 24.4 13.1 10.3 70.5- 0.0 4.0---- 0.0------------
1999-07-09 18.8 23.3 14.4 13.6 71.8- 2.0 5.3---- 0.0------------
1999-07-08 19.1 22.1 16.2 15.6 89.3- 7.3 2.3---- 1.0------------
1999-07-07 19.8 25.7 16.1 11.1 90.3- 8.0 4.3---- 0.0------------
1999-07-06 25.1 30.8 19.3 17.1 73.5- 2.7 3.0---- 10.8------------
1999-07-05 24.3 30.3 17.3 14.6 74.5- 2.0 2.7---- 0.0------------
1999-07-04 22.6 28.0 14.7 10.5 77.3- 6.0 3.0---- 0.0------------
1999-07-03 18.7 24.4 10.7 7.2 75.5- 4.3 2.3---- 0.0------------
1999-07-02 18.6 23.5 14.2 11.5 83.8- 4.7 3.7---- 0.0------------
1999-07-01 20.5 25.3 12.4 8.7 70.5- 2.3 1.0---- 0.0------------
1999-06-30 18.2 23.3 9.4 6.3 66.5- 1.7 2.0---- 0.0------------
1999-06-29 19.8 25.6 16.0 13.7 78.3- 4.0 4.3---- 0.0------------
1999-06-28 22.1 26.3 14.5 10.8 71.0- 4.0 2.0---- 0.0------------
1999-06-27 19.0 24.3 11.4 8.1 65.5- 1.3 3.7---- 0.0------------
1999-06-26 14.5 19.3 7.1 3.7 78.8- 2.0 3.0---- 0.0------------
1999-06-25 10.7 11.7 10.4 8.7 94.0- 6.7 3.7---- 0.6------------
1999-06-24 11.5 14.0 10.2 10.0 94.3- 8.0 3.0---- 9.0------------
1999-06-23 14.1 17.5 11.8 11.5 95.5- 8.0 3.3---- 8.4------------
1999-06-22 16.2 21.0 13.6 11.0 91.8- 8.0 4.7---- 22.2------------
1999-06-21 19.0 23.0 16.8 14.0 77.8- 6.0 3.3---- 1.4------------
1999-06-20 20.6 25.3 15.2 12.5 83.5- 3.0 3.0---- 0.0------------
1999-06-19 21.1 27.3 16.0 14.4 77.5- 3.7 3.0---- 11.8------------
1999-06-18 18.1 22.3 15.1 14.9 82.8- 7.0 2.7---- 4.8------------
1999-06-17 18.8 23.1 14.6 13.5 79.3- 7.3 1.7---- 18.0------------
1999-06-16 17.6 21.1 15.0 14.8 93.3- 6.3 3.0---- 0.0------------
240.1 ms

 

Źródłem pochodzenia danych jest Instytut Meteorologii i Gospodarki Wodnej – Państwowy Instytut Badawczy. Dane Instytutu Meteorologii i Gospodarki Wodnej – Państwowego Instytutu Badawczego zostały przetworzone.

Dane źródłowe można odnaleźć na stronie https://dane.imgw.pl